createdAt,value
2018-03-26T00:00:22.658Z,5.71
2018-03-26T00:01:24.416Z,5.73
2018-03-26T00:02:22.612Z,5.72
2018-03-26T00:03:22.580Z,5.68
2018-03-26T00:04:22.568Z,5.73
2018-03-26T00:05:22.548Z,5.72
2018-03-26T00:06:22.534Z,5.72
2018-03-26T00:07:22.505Z,5.69
2018-03-26T00:08:22.519Z,5.62
2018-03-26T00:09:22.452Z,5.64
2018-03-26T00:10:22.439Z,5.62
2018-03-26T00:11:22.421Z,5.69
2018-03-26T00:12:22.391Z,5.62
2018-03-26T00:13:22.376Z,5.61
2018-03-26T00:14:22.370Z,5.65
2018-03-26T00:15:22.328Z,5.68
2018-03-26T00:16:22.334Z,5.59
2018-03-26T00:17:22.295Z,5.66
2018-03-26T00:18:22.269Z,5.62
2018-03-26T00:19:22.246Z,5.61
2018-03-26T00:20:22.221Z,5.61
2018-03-26T00:21:22.216Z,5.57
2018-03-26T00:22:22.198Z,5.57
2018-03-26T00:23:22.167Z,5.56
2018-03-26T00:24:22.158Z,5.62
2018-03-26T00:25:22.116Z,5.62
2018-03-26T00:26:22.102Z,5.59
2018-03-26T00:27:22.070Z,5.59
2018-03-26T00:28:23.915Z,5.61
2018-03-26T00:29:22.032Z,5.61
2018-03-26T00:30:22.011Z,5.61
2018-03-26T00:31:21.992Z,5.57
2018-03-26T00:32:21.998Z,5.61
2018-03-26T00:33:21.957Z,5.61
2018-03-26T00:34:21.927Z,5.50
2018-03-26T00:35:21.909Z,5.53
2018-03-26T00:36:21.887Z,5.51
2018-03-26T00:37:21.881Z,5.50
2018-03-26T00:38:21.870Z,5.50
2018-03-26T00:39:21.828Z,5.51
2018-03-26T00:40:21.795Z,5.47
2018-03-26T00:41:21.774Z,5.43
2018-03-26T00:42:21.763Z,5.39
2018-03-26T00:43:21.753Z,5.47
2018-03-26T00:44:21.708Z,5.38
2018-03-26T00:45:21.682Z,5.39
2018-03-26T00:46:21.666Z,5.35
2018-03-26T00:47:21.667Z,5.38
2018-03-26T00:48:21.630Z,5.38
2018-03-26T00:49:21.594Z,5.35
2018-03-26T00:50:21.588Z,5.30
2018-03-26T00:51:21.562Z,5.38
2018-03-26T00:52:21.544Z,5.38
2018-03-26T00:53:21.516Z,5.35
2018-03-26T00:54:21.492Z,5.36
2018-03-26T00:55:21.484Z,5.33
2018-03-26T00:56:21.446Z,5.29
2018-03-26T00:57:21.419Z,5.23
2018-03-26T00:58:21.442Z,5.25
2018-03-26T00:59:21.399Z,5.33
2018-03-26T01:00:21.369Z,5.30
2018-03-26T01:01:21.348Z,5.33
2018-03-26T01:02:21.327Z,5.26
2018-03-26T01:03:21.303Z,5.23
2018-03-26T01:04:21.286Z,5.23
2018-03-26T01:05:21.257Z,5.33
2018-03-26T01:06:21.243Z,5.29
2018-03-26T01:07:21.212Z,5.30
2018-03-26T01:08:21.214Z,5.35
2018-03-26T01:09:21.173Z,5.28
2018-03-26T01:10:21.185Z,5.20
2018-03-26T01:11:21.136Z,5.28
2018-03-26T01:12:21.109Z,5.30
2018-03-26T01:13:21.101Z,5.32
2018-03-26T01:14:21.072Z,5.23
2018-03-26T01:15:21.070Z,5.18
2018-03-26T01:16:21.030Z,5.18
2018-03-26T01:17:21.020Z,5.07
2018-03-26T01:18:21.000Z,5.11
2018-03-26T01:19:21.004Z,5.05
2018-03-26T01:20:20.967Z,4.94
2018-03-26T01:21:20.912Z,4.99
2018-03-26T01:22:20.921Z,4.92
2018-03-26T01:23:20.893Z,4.89
2018-03-26T01:24:20.858Z,4.87
2018-03-26T01:25:20.841Z,4.80
2018-03-26T01:26:20.826Z,4.80
2018-03-26T01:27:20.802Z,4.84
2018-03-26T01:28:20.764Z,4.86
2018-03-26T01:29:20.766Z,4.74
2018-03-26T01:30:20.720Z,4.80
2018-03-26T01:31:20.715Z,4.74
2018-03-26T01:32:20.709Z,4.71
2018-03-26T01:33:20.662Z,4.77
2018-03-26T01:34:20.636Z,4.68
2018-03-26T01:35:20.612Z,4.74
2018-03-26T01:36:20.611Z,4.59
2018-03-26T01:37:20.564Z,4.60
2018-03-26T01:38:20.562Z,4.63
2018-03-26T01:39:20.532Z,4.45
2018-03-26T01:40:20.527Z,4.56
2018-03-26T01:41:20.487Z,4.48
2018-03-26T01:42:20.490Z,4.48
2018-03-26T01:43:20.484Z,4.42
2018-03-26T01:44:20.418Z,4.48
2018-03-26T01:45:20.392Z,4.48
2018-03-26T01:46:20.394Z,4.48
2018-03-26T01:47:20.355Z,4.32
2018-03-26T01:48:20.357Z,4.37
2018-03-26T01:49:20.332Z,4.31
2018-03-26T01:50:20.296Z,4.34
2018-03-26T01:51:20.262Z,4.20
2018-03-26T01:52:20.254Z,4.22
2018-03-26T01:53:20.224Z,4.19
2018-03-26T01:54:20.244Z,4.24
2018-03-26T01:55:20.172Z,4.13
2018-03-26T01:56:20.151Z,4.17
2018-03-26T01:57:20.154Z,4.14
2018-03-26T01:58:20.133Z,4.20
2018-03-26T01:59:20.092Z,4.08
2018-03-26T02:00:20.067Z,4.02
2018-03-26T02:01:20.043Z,3.99
2018-03-26T02:02:20.028Z,4.04
2018-03-26T02:03:20.009Z,4.01
2018-03-26T02:04:19.986Z,4.19
2018-03-26T02:05:19.950Z,4.14
2018-03-26T02:06:19.988Z,4.20
2018-03-26T02:07:19.955Z,4.10
2018-03-26T02:08:19.920Z,4.12
2018-03-26T02:09:19.901Z,4.04
2018-03-26T02:10:19.851Z,4.14
2018-03-26T02:11:19.826Z,4.04
2018-03-26T02:12:19.827Z,4.08
2018-03-26T02:13:19.787Z,3.96
2018-03-26T02:14:19.761Z,3.95
2018-03-26T02:15:19.758Z,3.95
2018-03-26T02:16:19.722Z,3.92
2018-03-26T02:17:19.696Z,3.81
2018-03-26T02:18:19.713Z,3.81
2018-03-26T02:19:19.653Z,3.86
2018-03-26T02:20:19.621Z,3.81
2018-03-26T02:21:19.606Z,3.81
2018-03-26T02:22:19.612Z,3.81
2018-03-26T02:23:19.572Z,3.78
2018-03-26T02:24:19.533Z,3.77
2018-03-26T02:25:19.537Z,3.74
2018-03-26T02:26:19.504Z,3.63
2018-03-26T02:27:19.478Z,3.63
2018-03-26T02:28:19.522Z,3.62
2018-03-26T02:29:19.428Z,3.62
2018-03-26T02:30:19.412Z,3.66
2018-03-26T02:31:19.408Z,3.63
2018-03-26T02:32:19.393Z,3.55
2018-03-26T02:33:19.337Z,3.51
2018-03-26T02:34:19.327Z,3.34
2018-03-26T02:35:19.299Z,3.42
2018-03-26T02:36:19.284Z,3.36
2018-03-26T02:37:19.263Z,3.32
2018-03-26T02:38:19.214Z,3.28
2018-03-26T02:39:19.200Z,3.26
2018-03-26T02:40:19.184Z,3.16
2018-03-26T02:41:19.160Z,3.08
2018-03-26T02:42:19.139Z,2.95
2018-03-26T02:43:19.134Z,2.93
2018-03-26T02:44:19.112Z,2.86
2018-03-26T02:45:19.069Z,2.79
2018-03-26T02:46:19.061Z,2.69
2018-03-26T02:47:19.038Z,2.67
2018-03-26T02:48:19.010Z,2.60
2018-03-26T02:49:18.990Z,2.60
2018-03-26T02:50:18.978Z,2.53
2018-03-26T02:51:18.961Z,2.47
2018-03-26T02:52:18.910Z,2.38
2018-03-26T02:53:18.885Z,2.35
2018-03-26T02:54:18.869Z,2.28
2018-03-26T02:55:18.837Z,2.33
2018-03-26T02:56:18.828Z,2.15
2018-03-26T02:57:18.824Z,2.14
2018-03-26T02:58:18.795Z,2.17
2018-03-26T02:59:18.797Z,2.10
2018-03-26T03:00:18.730Z,2.04
2018-03-26T03:01:18.721Z,2.08
2018-03-26T03:02:18.683Z,1.97
2018-03-26T03:03:18.656Z,1.94
2018-03-26T03:04:18.655Z,1.89
2018-03-26T03:05:18.618Z,1.78
2018-03-26T03:06:18.618Z,1.81
2018-03-26T03:07:18.570Z,1.71
2018-03-26T03:08:18.556Z,1.56
2018-03-26T03:09:18.522Z,1.63
2018-03-26T03:10:18.497Z,1.55
2018-03-26T03:11:18.488Z,1.48
2018-03-26T03:12:18.471Z,1.48
2018-03-26T03:13:18.460Z,1.55
2018-03-26T03:14:18.416Z,1.56
2018-03-26T03:15:18.394Z,1.52
2018-03-26T03:16:18.364Z,1.38
2018-03-26T03:17:18.349Z,1.42
2018-03-26T03:18:18.339Z,1.45
2018-03-26T03:19:18.346Z,1.49
2018-03-26T03:20:18.270Z,1.30
2018-03-26T03:21:18.256Z,1.28
2018-03-26T03:22:18.236Z,1.31
2018-03-26T03:23:18.201Z,1.23
2018-03-26T03:24:18.180Z,1.26
2018-03-26T03:25:18.176Z,1.23
2018-03-26T03:26:18.125Z,1.04
2018-03-26T03:27:18.113Z,1.08
2018-03-26T03:28:18.120Z,1.04
2018-03-26T03:29:18.062Z,1.01
2018-03-26T03:30:18.049Z,0.96
2018-03-26T03:31:18.015Z,1.01
2018-03-26T03:32:18.002Z,0.86
2018-03-26T03:33:17.958Z,0.86
2018-03-26T03:34:17.941Z,0.83
2018-03-26T03:35:17.941Z,0.69
2018-03-26T03:36:17.897Z,0.70
2018-03-26T03:37:17.878Z,0.78
2018-03-26T03:38:17.862Z,0.59
2018-03-26T03:39:17.840Z,0.63
2018-03-26T03:40:17.815Z,0.60
2018-03-26T03:41:17.780Z,0.62
2018-03-26T03:42:17.762Z,0.69
2018-03-26T03:43:17.735Z,0.50
2018-03-26T03:44:17.713Z,0.47
2018-03-26T03:45:17.709Z,0.47
2018-03-26T03:46:17.662Z,0.60
2018-03-26T03:47:17.648Z,0.55
2018-03-26T03:48:17.614Z,0.47
2018-03-26T03:49:17.622Z,0.60
2018-03-26T03:50:17.564Z,0.56
2018-03-26T03:51:17.570Z,0.62
2018-03-26T03:52:17.589Z,0.56
2018-03-26T03:53:17.500Z,0.44
2018-03-26T03:54:17.488Z,0.50
2018-03-26T03:55:17.543Z,0.50
2018-03-26T03:56:17.463Z,0.58
2018-03-26T03:57:17.427Z,0.56
2018-03-26T03:58:17.376Z,0.50
2018-03-26T03:59:17.348Z,0.47
2018-03-26T04:00:17.402Z,0.49
2018-03-26T04:01:17.684Z,0.37
2018-03-26T04:02:17.292Z,0.37
2018-03-26T04:03:17.271Z,0.39
2018-03-26T04:04:17.234Z,0.34
2018-03-26T04:05:17.224Z,0.41
2018-03-26T04:06:17.194Z,0.37
2018-03-26T04:07:17.170Z,0.41
2018-03-26T04:08:17.166Z,0.41
2018-03-26T04:09:17.132Z,0.41
2018-03-26T04:10:17.103Z,0.36
2018-03-26T04:11:17.068Z,0.44
2018-03-26T04:12:17.096Z,0.36
2018-03-26T04:13:17.057Z,0.39
2018-03-26T04:14:17.002Z,0.49
2018-03-26T04:15:17.027Z,0.43
2018-03-26T04:16:16.955Z,0.47
2018-03-26T04:17:16.945Z,0.50
2018-03-26T04:18:16.944Z,0.50
2018-03-26T04:19:16.946Z,0.52
2018-03-26T04:20:16.870Z,0.65
2018-03-26T04:21:16.857Z,0.62
2018-03-26T04:22:16.841Z,0.73
2018-03-26T04:23:16.788Z,0.76
2018-03-26T04:24:16.786Z,0.84
2018-03-26T04:25:16.750Z,0.88
2018-03-26T04:26:16.731Z,0.98
2018-03-26T04:27:16.732Z,0.98
2018-03-26T04:28:16.674Z,1.05
2018-03-26T04:29:16.665Z,1.08
2018-03-26T04:30:16.627Z,1.13
2018-03-26T04:31:16.626Z,1.20
2018-03-26T04:32:16.575Z,1.20
2018-03-26T04:33:16.550Z,1.23
2018-03-26T04:34:16.560Z,1.26
2018-03-26T04:35:16.522Z,1.38
2018-03-26T04:36:16.489Z,1.32
2018-03-26T04:37:16.471Z,1.41
2018-03-26T04:38:17.513Z,1.44
2018-03-26T04:39:16.416Z,1.49
2018-03-26T04:40:16.404Z,1.50
2018-03-26T04:41:16.386Z,1.53
2018-03-26T04:42:16.345Z,1.52
2018-03-26T04:43:16.317Z,1.50
2018-03-26T04:44:16.301Z,1.52
2018-03-26T04:45:16.280Z,1.59
2018-03-26T04:46:16.260Z,1.56
2018-03-26T04:47:16.245Z,1.66
2018-03-26T04:48:16.196Z,1.63
2018-03-26T04:49:16.181Z,1.60
2018-03-26T04:50:17.975Z,1.58
2018-03-26T04:51:16.116Z,1.73
2018-03-26T04:52:16.111Z,1.71
2018-03-26T04:53:16.109Z,1.73
2018-03-26T04:54:16.056Z,1.80
2018-03-26T04:55:16.046Z,1.76
2018-03-26T04:56:16.003Z,1.84
2018-03-26T04:57:15.998Z,1.85
2018-03-26T04:58:15.963Z,1.87
2018-03-26T04:59:15.979Z,1.88
2018-03-26T05:00:15.916Z,1.91
2018-03-26T05:01:15.919Z,1.94
2018-03-26T05:02:15.927Z,1.89
2018-03-26T05:03:15.848Z,2.06
2018-03-26T05:04:15.849Z,2.07
2018-03-26T05:05:15.806Z,2.06
2018-03-26T05:06:15.765Z,2.04
2018-03-26T05:07:15.749Z,2.04
2018-03-26T05:08:15.732Z,2.04
2018-03-26T05:09:15.710Z,2.10
2018-03-26T05:10:15.684Z,2.13
2018-03-26T05:11:15.663Z,2.07
2018-03-26T05:12:15.639Z,2.07
2018-03-26T05:13:15.612Z,2.24
2018-03-26T05:14:15.603Z,2.18
2018-03-26T05:15:15.611Z,2.20
2018-03-26T05:16:15.559Z,2.18
2018-03-26T05:17:15.524Z,2.31
2018-03-26T05:18:16.324Z,2.29
2018-03-26T05:19:15.480Z,2.25
2018-03-26T05:20:15.462Z,2.29
2018-03-26T05:21:15.439Z,2.29
2018-03-26T05:22:15.418Z,2.29
2018-03-26T05:23:15.382Z,2.33
2018-03-26T05:24:15.392Z,2.42
2018-03-26T05:25:15.338Z,2.42
2018-03-26T05:26:15.321Z,2.49
2018-03-26T05:27:15.305Z,2.43
2018-03-26T05:28:15.266Z,2.51
2018-03-26T05:29:15.286Z,2.44
2018-03-26T05:30:15.238Z,2.42
2018-03-26T05:31:15.215Z,2.50
2018-03-26T05:32:15.180Z,2.43
2018-03-26T05:33:15.166Z,2.50
2018-03-26T05:34:15.127Z,2.54
2018-03-26T05:35:15.102Z,2.54
2018-03-26T05:36:15.088Z,2.56
2018-03-26T05:37:15.082Z,2.56
2018-03-26T05:38:15.048Z,2.60
2018-03-26T05:39:15.028Z,2.64
2018-03-26T05:40:15.007Z,2.64
2018-03-26T05:41:14.974Z,2.60
2018-03-26T05:42:14.943Z,2.67
2018-03-26T05:43:14.934Z,2.65
2018-03-26T05:44:14.893Z,2.68
2018-03-26T05:45:14.916Z,2.68
2018-03-26T05:46:14.877Z,2.74
2018-03-26T05:47:14.841Z,2.69
2018-03-26T05:48:14.835Z,2.72
2018-03-26T05:49:14.793Z,2.72
2018-03-26T05:50:14.772Z,2.69
2018-03-26T05:51:14.751Z,2.72
2018-03-26T05:52:14.778Z,2.85
2018-03-26T05:53:14.693Z,2.72
2018-03-26T05:54:14.674Z,2.80
2018-03-26T05:55:14.680Z,2.80
2018-03-26T05:56:14.624Z,2.75
2018-03-26T05:57:14.631Z,2.93
2018-03-26T05:58:14.589Z,2.90
2018-03-26T05:59:14.581Z,2.85
2018-03-26T06:00:14.563Z,2.90
2018-03-26T06:01:14.515Z,2.95
2018-03-26T06:02:14.508Z,2.93
2018-03-26T06:03:14.477Z,2.97
2018-03-26T06:04:14.482Z,3.05
2018-03-26T06:05:14.450Z,3.04
2018-03-26T06:06:14.426Z,3.05
2018-03-26T06:07:14.396Z,3.07
2018-03-26T06:08:14.362Z,3.07
2018-03-26T06:09:15.392Z,3.08
2018-03-26T06:10:14.319Z,3.08
2018-03-26T06:11:14.280Z,3.11
2018-03-26T06:12:14.261Z,3.10
2018-03-26T06:13:14.277Z,3.21
2018-03-26T06:14:14.215Z,3.13
2018-03-26T06:15:14.196Z,3.19
2018-03-26T06:16:14.174Z,3.18
2018-03-26T06:17:14.158Z,3.16
2018-03-26T06:18:14.144Z,3.13
2018-03-26T06:19:14.125Z,3.28
2018-03-26T06:20:14.102Z,3.25
2018-03-26T06:21:14.079Z,3.21
2018-03-26T06:22:14.072Z,3.28
2018-03-26T06:23:14.051Z,3.22
2018-03-26T06:24:14.036Z,3.25
2018-03-26T06:25:13.985Z,3.21
2018-03-26T06:26:13.959Z,3.25
2018-03-26T06:27:13.930Z,3.21
2018-03-26T06:28:13.900Z,3.23
2018-03-26T06:29:13.891Z,3.23
2018-03-26T06:30:13.867Z,3.22
2018-03-26T06:31:13.861Z,3.31
2018-03-26T06:32:13.821Z,3.29
2018-03-26T06:33:13.791Z,3.37
2018-03-26T06:34:13.764Z,3.34
2018-03-26T06:35:13.742Z,3.42
2018-03-26T06:36:13.757Z,3.41
2018-03-26T06:37:13.713Z,3.42
2018-03-26T06:38:13.695Z,3.48
2018-03-26T06:39:13.687Z,3.53
2018-03-26T06:40:13.652Z,3.56
2018-03-26T06:41:13.652Z,3.53
2018-03-26T06:42:13.599Z,3.56
2018-03-26T06:43:13.575Z,3.58
2018-03-26T06:44:13.576Z,3.58
2018-03-26T06:45:13.519Z,3.53
2018-03-26T06:46:13.496Z,3.48
2018-03-26T06:47:13.584Z,3.53
2018-03-26T06:48:13.460Z,3.62
2018-03-26T06:49:13.440Z,3.55
2018-03-26T06:50:13.410Z,3.63
2018-03-26T06:51:13.372Z,3.62
2018-03-26T06:52:13.359Z,3.63
2018-03-26T06:53:13.324Z,3.63
2018-03-26T06:54:13.313Z,3.69
2018-03-26T06:55:13.313Z,3.65
2018-03-26T06:56:13.299Z,3.77
2018-03-26T06:57:13.276Z,3.78
2018-03-26T06:58:13.206Z,3.76
2018-03-26T06:59:13.240Z,3.80
2018-03-26T07:00:13.204Z,3.83
2018-03-26T07:01:13.162Z,3.87
2018-03-26T07:02:13.120Z,3.87
2018-03-26T07:03:13.180Z,3.81
2018-03-26T07:04:13.083Z,3.91
2018-03-26T07:05:13.085Z,3.87
2018-03-26T07:06:13.047Z,3.98
2018-03-26T07:07:13.067Z,3.96
2018-03-26T07:08:13.032Z,3.95
2018-03-26T07:09:12.980Z,3.99
2018-03-26T07:10:12.958Z,4.10
2018-03-26T07:11:12.929Z,3.99
2018-03-26T07:12:12.905Z,4.04
2018-03-26T07:13:12.902Z,4.14
2018-03-26T07:14:12.866Z,4.13
2018-03-26T07:15:12.849Z,4.16
2018-03-26T07:16:12.913Z,4.17
2018-03-26T07:17:12.802Z,4.16
2018-03-26T07:18:12.772Z,4.10
2018-03-26T07:19:12.768Z,4.08
2018-03-26T07:20:12.740Z,4.14
2018-03-26T07:21:12.754Z,4.08
2018-03-26T07:22:12.684Z,4.14
2018-03-26T07:23:12.709Z,4.16
2018-03-26T07:24:12.644Z,4.13
2018-03-26T07:25:12.603Z,4.16
2018-03-26T07:26:12.594Z,4.17
2018-03-26T07:27:12.592Z,4.16
2018-03-26T07:28:12.538Z,4.22
2018-03-26T07:29:12.547Z,4.28
2018-03-26T07:30:12.516Z,4.22
2018-03-26T07:31:12.481Z,4.23
2018-03-26T07:32:12.474Z,4.20
2018-03-26T07:33:12.438Z,4.28
2018-03-26T07:34:12.399Z,4.23
2018-03-26T07:35:12.405Z,4.19
2018-03-26T07:36:12.398Z,4.26
2018-03-26T07:37:12.343Z,4.31
2018-03-26T07:38:12.340Z,4.32
2018-03-26T07:39:12.297Z,4.34
2018-03-26T07:40:12.310Z,4.35
2018-03-26T07:41:12.301Z,4.35
2018-03-26T07:42:12.245Z,4.35
2018-03-26T07:43:12.237Z,4.34
2018-03-26T07:44:12.180Z,4.34
2018-03-26T07:45:12.177Z,4.31
2018-03-26T07:46:12.151Z,4.42
2018-03-26T07:47:12.150Z,4.48
2018-03-26T07:48:12.143Z,4.42
2018-03-26T07:49:12.106Z,4.48
2018-03-26T07:50:12.104Z,4.45
2018-03-26T07:51:12.038Z,4.48
2018-03-26T07:52:12.024Z,4.45
2018-03-26T07:53:11.992Z,4.53
2018-03-26T07:54:12.000Z,4.62
2018-03-26T07:55:11.971Z,4.62
2018-03-26T07:56:11.960Z,4.53
2018-03-26T07:57:11.899Z,4.66
2018-03-26T07:58:11.881Z,4.67
2018-03-26T07:59:11.849Z,4.67
2018-03-26T08:00:13.505Z,4.74
2018-03-26T08:01:11.820Z,4.80
2018-03-26T08:02:11.786Z,4.71
2018-03-26T08:03:11.765Z,4.80
2018-03-26T08:04:11.770Z,4.78
2018-03-26T08:05:11.757Z,4.77
2018-03-26T08:06:11.698Z,4.86
2018-03-26T08:07:11.696Z,4.92
2018-03-26T08:08:11.650Z,4.86
2018-03-26T08:09:11.648Z,4.86
2018-03-26T08:10:13.525Z,4.89
2018-03-26T08:11:11.604Z,4.86
2018-03-26T08:12:11.616Z,4.73
2018-03-26T08:13:11.599Z,4.71
2018-03-26T08:14:11.523Z,4.67
2018-03-26T08:15:11.503Z,4.67
2018-03-26T08:16:11.486Z,4.66
2018-03-26T08:17:11.525Z,4.80
2018-03-26T08:18:11.476Z,4.77
2018-03-26T08:19:11.414Z,4.74
2018-03-26T08:20:11.447Z,4.78
2018-03-26T08:21:11.360Z,4.77
2018-03-26T08:22:11.380Z,4.71
2018-03-26T08:23:11.354Z,4.78
2018-03-26T08:24:11.306Z,4.82
2018-03-26T08:25:11.331Z,4.87
2018-03-26T08:26:11.268Z,4.92
2018-03-26T08:27:11.257Z,4.82
2018-03-26T08:28:11.217Z,4.89
2018-03-26T08:29:11.212Z,4.96
2018-03-26T08:30:11.221Z,4.94
2018-03-26T08:31:11.204Z,4.92
2018-03-26T08:32:11.149Z,4.92
2018-03-26T08:33:11.117Z,4.94
2018-03-26T08:34:11.136Z,4.99
2018-03-26T08:35:12.144Z,4.94
2018-03-26T08:36:11.036Z,5.05
2018-03-26T08:37:11.027Z,5.10
2018-03-26T08:38:11.042Z,5.05
2018-03-26T08:39:10.969Z,5.08
2018-03-26T08:40:10.962Z,5.18
2018-03-26T08:41:10.968Z,5.18
2018-03-26T08:42:10.979Z,5.12
2018-03-26T08:43:10.890Z,5.17
2018-03-26T08:44:10.878Z,5.20
2018-03-26T08:45:10.886Z,5.11
2018-03-26T08:46:10.910Z,5.12
2018-03-26T08:47:10.799Z,5.28
2018-03-26T08:48:10.782Z,5.32
2018-03-26T08:49:10.780Z,5.32
2018-03-26T08:50:10.912Z,5.32
2018-03-26T08:51:10.747Z,5.41
2018-03-26T08:52:10.732Z,5.44
2018-03-26T08:53:10.668Z,5.43
2018-03-26T08:54:10.649Z,5.50
2018-03-26T08:55:10.663Z,5.50
2018-03-26T08:56:10.604Z,5.51
2018-03-26T08:57:10.582Z,5.47
2018-03-26T08:58:10.571Z,5.54
2018-03-26T08:59:10.559Z,5.47
2018-03-26T09:00:10.552Z,5.46
2018-03-26T09:01:10.502Z,5.53
2018-03-26T09:02:10.505Z,5.61
2018-03-26T09:03:10.473Z,5.54
2018-03-26T09:04:10.423Z,5.69
2018-03-26T09:05:10.415Z,5.66
2018-03-26T09:06:10.404Z,5.64
2018-03-26T09:07:10.370Z,5.73
2018-03-26T09:08:10.356Z,5.72
2018-03-26T09:09:10.336Z,5.86
2018-03-26T09:10:10.302Z,5.84
2018-03-26T09:11:10.315Z,5.76
2018-03-26T09:12:10.261Z,5.87
2018-03-26T09:13:10.280Z,5.79
2018-03-26T09:14:10.202Z,5.87
2018-03-26T09:15:10.198Z,5.93
2018-03-26T09:16:10.196Z,5.84
2018-03-26T09:17:10.166Z,5.83
2018-03-26T09:18:10.171Z,5.83
2018-03-26T09:19:10.133Z,5.75
2018-03-26T09:20:10.113Z,5.75
2018-03-26T09:21:10.080Z,5.89
2018-03-26T09:22:10.063Z,5.80
2018-03-26T09:23:10.021Z,5.80
2018-03-26T09:24:10.019Z,5.79
2018-03-26T09:25:09.972Z,5.82
2018-03-26T09:26:09.942Z,5.87
2018-03-26T09:27:09.985Z,5.84
2018-03-26T09:28:09.943Z,5.89
2018-03-26T09:29:09.913Z,5.83
2018-03-26T09:30:09.867Z,5.84
2018-03-26T09:31:09.848Z,5.87
2018-03-26T09:32:09.831Z,5.87
2018-03-26T09:33:09.808Z,5.94
2018-03-26T09:34:09.789Z,5.84
2018-03-26T09:35:09.769Z,5.94
2018-03-26T09:36:09.752Z,5.93
2018-03-26T09:37:09.719Z,5.99
2018-03-26T09:38:09.814Z,5.93
2018-03-26T09:39:09.691Z,5.97
2018-03-26T09:40:09.667Z,6.01
2018-03-26T09:41:09.681Z,6.01
2018-03-26T09:42:09.645Z,6.07
2018-03-26T09:43:09.587Z,6.01
2018-03-26T09:44:09.574Z,6.17
2018-03-26T09:45:09.578Z,6.09
2018-03-26T09:46:09.558Z,6.22
2018-03-26T09:47:09.504Z,6.22
2018-03-26T09:48:09.477Z,6.22
2018-03-26T09:49:09.484Z,6.30
2018-03-26T09:50:09.448Z,6.41
2018-03-26T09:51:09.430Z,6.41
2018-03-26T09:52:09.411Z,6.39
2018-03-26T09:53:09.444Z,6.46
2018-03-26T09:54:09.356Z,6.45
2018-03-26T09:55:09.323Z,6.57
2018-03-26T09:56:09.330Z,6.59
2018-03-26T09:57:09.292Z,6.62
2018-03-26T09:58:09.281Z,6.62
2018-03-26T09:59:09.248Z,6.70
2018-03-26T10:00:09.270Z,6.75
2018-03-26T10:01:09.216Z,6.95
2018-03-26T10:02:09.213Z,6.92
2018-03-26T10:03:09.185Z,6.85
2018-03-26T10:04:09.156Z,7.05
2018-03-26T10:05:09.210Z,7.13
2018-03-26T10:06:09.116Z,7.10
2018-03-26T10:07:09.079Z,7.15
2018-03-26T10:08:09.071Z,7.25
2018-03-26T10:09:09.558Z,7.31
2018-03-26T10:10:09.101Z,7.42
2018-03-26T10:11:09.036Z,7.48
2018-03-26T10:12:08.977Z,7.51
2018-03-26T10:13:08.960Z,7.57
2018-03-26T10:14:10.592Z,7.58
2018-03-26T10:15:08.915Z,7.66
2018-03-26T10:16:08.896Z,7.69
2018-03-26T10:17:08.872Z,7.77
2018-03-26T10:18:08.853Z,7.79
2018-03-26T10:19:08.820Z,7.87
2018-03-26T10:20:08.820Z,7.87
2018-03-26T10:21:10.558Z,7.95
2018-03-26T10:22:08.773Z,8.06
2018-03-26T10:23:08.796Z,8.09
2018-03-26T10:24:08.720Z,8.13
2018-03-26T10:25:08.697Z,8.13
2018-03-26T10:26:08.685Z,8.23
2018-03-26T10:27:08.666Z,8.33
2018-03-26T10:28:08.651Z,8.44
2018-03-26T10:29:08.618Z,8.52
2018-03-26T10:30:08.594Z,8.45
2018-03-26T10:31:08.597Z,8.58
2018-03-26T10:32:08.559Z,8.66
2018-03-26T10:33:08.572Z,8.64
2018-03-26T10:34:08.518Z,8.70
2018-03-26T10:35:08.525Z,8.94
2018-03-26T10:36:08.494Z,9.14
2018-03-26T10:37:08.480Z,9.31
2018-03-26T10:38:08.466Z,9.59
2018-03-26T10:39:08.437Z,9.74
2018-03-26T10:40:08.406Z,10.02
2018-03-26T10:41:08.395Z,10.34
2018-03-26T10:42:08.364Z,10.60
2018-03-26T10:43:08.344Z,10.89
2018-03-26T10:44:08.320Z,11.15
2018-03-26T10:45:08.303Z,11.51
2018-03-26T10:46:08.284Z,11.78
2018-03-26T10:47:08.408Z,11.95
2018-03-26T10:48:08.260Z,11.97
2018-03-26T10:49:08.230Z,12.00
2018-03-26T10:50:08.217Z,12.02
2018-03-26T10:51:08.211Z,12.13
2018-03-26T10:52:08.193Z,12.07
2018-03-26T10:53:08.157Z,12.24
2018-03-26T10:54:08.129Z,12.50
2018-03-26T10:55:08.128Z,12.49
2018-03-26T10:56:08.116Z,12.82
2018-03-26T10:57:08.111Z,13.18
2018-03-26T10:58:08.087Z,13.65
2018-03-26T10:59:08.050Z,13.87
2018-03-26T11:00:08.040Z,13.96
2018-03-26T11:01:08.034Z,14.04
2018-03-26T11:02:07.976Z,14.22
2018-03-26T11:03:07.968Z,14.60
2018-03-26T11:04:07.979Z,14.94
2018-03-26T11:05:07.928Z,15.19
2018-03-26T11:06:07.929Z,15.37
2018-03-26T11:07:07.913Z,15.55
2018-03-26T11:08:08.019Z,15.73
2018-03-26T11:09:07.881Z,15.91
2018-03-26T11:10:07.843Z,16.05
2018-03-26T11:11:07.871Z,16.02
2018-03-26T11:12:07.839Z,15.97
2018-03-26T11:13:07.823Z,16.20
2018-03-26T11:14:07.783Z,16.64
2018-03-26T11:15:07.764Z,17.24
2018-03-26T11:16:07.752Z,18.20
2018-03-26T11:17:07.742Z,19.45
2018-03-26T11:18:07.802Z,20.51
2018-03-26T11:19:07.713Z,21.32
2018-03-26T11:20:07.700Z,21.46
2018-03-26T11:21:07.702Z,20.96
2018-03-26T11:22:07.649Z,20.14
2018-03-26T11:23:07.665Z,19.37
2018-03-26T11:24:07.626Z,18.62
2018-03-26T11:25:07.608Z,18.10
2018-03-26T11:26:07.596Z,17.60
2018-03-26T11:27:07.588Z,17.14
2018-03-26T11:28:07.622Z,16.72
2018-03-26T11:29:07.571Z,16.33
2018-03-26T11:30:07.521Z,15.95
2018-03-26T11:31:07.521Z,15.70
2018-03-26T11:32:07.521Z,15.49
2018-03-26T11:33:07.484Z,15.19
2018-03-26T11:34:07.482Z,15.02
2018-03-26T11:35:07.469Z,15.02
2018-03-26T11:36:09.067Z,14.92
2018-03-26T11:37:07.422Z,14.68
2018-03-26T11:38:07.431Z,14.37
2018-03-26T11:39:07.420Z,14.11
2018-03-26T11:40:07.390Z,13.93
2018-03-26T11:41:07.381Z,13.81
2018-03-26T11:42:07.388Z,13.72
2018-03-26T11:43:07.337Z,13.63
2018-03-26T11:44:07.327Z,13.62
2018-03-26T11:45:07.305Z,13.67
2018-03-26T11:46:08.334Z,13.70
2018-03-26T11:47:07.279Z,13.63
2018-03-26T11:48:07.263Z,13.67
2018-03-26T11:49:07.235Z,13.59
2018-03-26T11:50:07.221Z,13.49
2018-03-26T11:51:07.250Z,13.47
2018-03-26T11:52:07.220Z,13.47
2018-03-26T11:53:07.194Z,13.39
2018-03-26T11:54:07.191Z,13.37
2018-03-26T11:55:07.207Z,13.19
2018-03-26T11:56:07.150Z,12.95
2018-03-26T11:57:07.130Z,12.82
2018-03-26T11:58:07.110Z,12.54
2018-03-26T11:59:08.220Z,12.36
2018-03-26T12:00:07.059Z,12.12
2018-03-26T12:01:07.049Z,12.07
2018-03-26T12:02:07.050Z,12.00
2018-03-26T12:03:07.020Z,11.81
2018-03-26T12:04:06.994Z,11.86
2018-03-26T12:05:06.982Z,11.75
2018-03-26T12:06:06.960Z,11.72
2018-03-26T12:07:06.955Z,11.57
2018-03-26T12:08:06.927Z,11.54
2018-03-26T12:09:06.922Z,11.44
2018-03-26T12:10:06.897Z,11.44
2018-03-26T12:11:06.888Z,11.35
2018-03-26T12:12:06.852Z,11.22
2018-03-26T12:13:06.910Z,11.19
2018-03-26T12:14:06.828Z,11.14
2018-03-26T12:15:06.780Z,11.07
2018-03-26T12:16:06.820Z,11.10
2018-03-26T12:17:06.803Z,11.11
2018-03-26T12:18:06.766Z,11.19
2018-03-26T12:19:06.740Z,11.41
2018-03-26T12:20:06.737Z,11.62
2018-03-26T12:21:06.723Z,12.00
2018-03-26T12:22:06.662Z,12.36
2018-03-26T12:23:06.624Z,12.97
2018-03-26T12:24:06.618Z,13.87
2018-03-26T12:25:06.611Z,14.72
2018-03-26T12:26:06.643Z,15.25
2018-03-26T12:27:06.586Z,15.90
2018-03-26T12:28:06.579Z,16.57
2018-03-26T12:29:06.547Z,16.79
2018-03-26T12:30:06.523Z,16.78
2018-03-26T12:31:06.514Z,16.41
2018-03-26T12:32:06.518Z,16.17
2018-03-26T12:33:06.471Z,15.80
2018-03-26T12:34:06.446Z,15.42
2018-03-26T12:35:06.463Z,14.91
2018-03-26T12:36:06.394Z,14.54
2018-03-26T12:37:06.414Z,14.23
2018-03-26T12:38:06.383Z,13.87
2018-03-26T12:39:06.376Z,13.67
2018-03-26T12:40:06.358Z,13.31
2018-03-26T12:41:06.312Z,12.94
2018-03-26T12:42:06.363Z,12.78
2018-03-26T12:43:06.313Z,12.60
2018-03-26T12:44:06.324Z,12.46
2018-03-26T12:45:06.241Z,12.10
2018-03-26T12:46:06.259Z,11.90
2018-03-26T12:47:06.227Z,11.83
2018-03-26T12:48:06.209Z,11.62
2018-03-26T12:49:06.188Z,11.57
2018-03-26T12:50:06.160Z,11.57
2018-03-26T12:51:06.150Z,11.51
2018-03-26T12:52:06.159Z,11.48
2018-03-26T12:53:06.112Z,11.43
2018-03-26T12:54:06.103Z,11.36
2018-03-26T12:55:06.079Z,11.33
2018-03-26T12:56:06.105Z,11.33
2018-03-26T12:57:06.030Z,11.36
2018-03-26T12:58:06.027Z,11.44
2018-03-26T12:59:06.002Z,11.47
2018-03-26T13:00:06.072Z,11.51
2018-03-26T13:01:05.996Z,11.60
2018-03-26T13:02:07.009Z,12.02
2018-03-26T13:03:05.978Z,12.70
2018-03-26T13:04:05.903Z,13.35
2018-03-26T13:05:05.904Z,14.03
2018-03-26T13:06:05.871Z,14.94
2018-03-26T13:07:05.863Z,15.46
2018-03-26T13:08:05.855Z,15.72
2018-03-26T13:09:05.828Z,15.72
2018-03-26T13:10:05.801Z,15.73
2018-03-26T13:11:05.804Z,15.54
2018-03-26T13:12:05.772Z,15.40
2018-03-26T13:13:05.759Z,15.17